createdAt,value
2022-08-25T00:01:23.193Z,20.91
2022-08-25T00:03:55.122Z,20.91
2022-08-25T00:06:24.414Z,20.91
2022-08-25T00:08:52.128Z,20.90
2022-08-25T00:11:24.185Z,20.90
2022-08-25T00:13:54.094Z,20.90
2022-08-25T00:16:22.445Z,20.90
2022-08-25T00:18:51.679Z,20.89
2022-08-25T00:21:19.506Z,20.89
2022-08-25T00:23:47.273Z,20.88
2022-08-25T00:26:15.607Z,20.89
2022-08-25T00:28:44.914Z,20.88
2022-08-25T00:31:13.481Z,20.88
2022-08-25T00:33:41.288Z,20.88
2022-08-25T00:36:09.593Z,20.89
2022-08-25T00:38:38.258Z,20.87
2022-08-25T00:41:08.617Z,20.89
2022-08-25T00:43:38.087Z,20.87
2022-08-25T00:46:07.438Z,20.86
2022-08-25T00:48:36.621Z,20.86
2022-08-25T00:51:04.516Z,20.85
2022-08-25T00:53:32.238Z,20.85
2022-08-25T00:55:59.916Z,20.85
2022-08-25T00:58:28.059Z,20.86
2022-08-25T01:00:57.601Z,20.85
2022-08-25T01:03:31.543Z,20.86
2022-08-25T01:06:01.248Z,20.85
2022-08-25T01:08:29.308Z,20.85
2022-08-25T01:11:00.460Z,20.84
2022-08-25T01:13:31.830Z,20.84
2022-08-25T01:15:59.554Z,20.83
2022-08-25T01:18:28.933Z,20.85
2022-08-25T01:20:58.173Z,20.84
2022-08-25T01:23:25.978Z,20.85
2022-08-25T01:25:58.915Z,20.84
2022-08-25T01:28:26.557Z,20.85
2022-08-25T01:30:54.418Z,20.85
2022-08-25T01:33:23.714Z,20.84
2022-08-25T01:35:51.434Z,20.84
2022-08-25T01:38:21.214Z,20.83
2022-08-25T01:40:50.838Z,20.83
2022-08-25T01:43:26.769Z,20.83
2022-08-25T01:45:54.483Z,20.83
2022-08-25T01:48:22.235Z,20.84
2022-08-25T01:50:49.956Z,20.83
2022-08-25T01:53:23.278Z,20.84
2022-08-25T01:55:55.788Z,20.84
2022-08-25T01:58:25.117Z,20.84
2022-08-25T02:00:54.515Z,20.84
2022-08-25T02:03:22.592Z,20.83
2022-08-25T02:05:50.290Z,20.83
2022-08-25T02:08:18.124Z,20.82
2022-08-25T02:10:47.831Z,20.82
2022-08-25T02:13:15.572Z,20.82
2022-08-25T02:15:44.441Z,20.83
2022-08-25T02:18:12.177Z,20.82
2022-08-25T02:20:39.926Z,20.82
2022-08-25T02:23:07.650Z,20.81
2022-08-25T02:25:35.367Z,20.82
2022-08-25T02:28:05.138Z,20.80
2022-08-25T02:30:33.132Z,20.80
2022-08-25T02:33:00.914Z,20.81
2022-08-25T02:35:29.642Z,20.80
2022-08-25T02:37:57.339Z,20.80
2022-08-25T02:40:25.111Z,20.81
2022-08-25T02:42:53.026Z,20.80
2022-08-25T02:45:22.128Z,20.79
2022-08-25T02:47:49.880Z,20.79
2022-08-25T02:50:17.590Z,20.79
2022-08-25T02:52:45.336Z,20.79
2022-08-25T02:55:14.321Z,20.79
2022-08-25T02:57:42.906Z,20.79
2022-08-25T03:00:11.637Z,20.79
2022-08-25T03:02:42.399Z,20.77
2022-08-25T03:05:10.891Z,20.78
2022-08-25T03:07:39.222Z,20.77
2022-08-25T03:10:08.718Z,20.79
2022-08-25T03:12:36.653Z,20.79
2022-08-25T03:15:04.881Z,20.79
2022-08-25T03:17:36.894Z,20.77
2022-08-25T03:20:07.245Z,20.77
2022-08-25T03:22:34.997Z,20.77
2022-08-25T03:25:18.961Z,20.76
2022-08-25T03:27:51.854Z,20.76
2022-08-25T03:30:19.842Z,20.76
2022-08-25T03:32:47.577Z,20.76
2022-08-25T03:35:16.646Z,20.77
2022-08-25T03:37:44.522Z,20.76
2022-08-25T03:40:15.318Z,20.76
2022-08-25T03:42:45.100Z,20.76
2022-08-25T03:45:13.778Z,20.76
2022-08-25T03:47:42.141Z,20.75
2022-08-25T03:50:11.232Z,20.76
2022-08-25T03:52:42.642Z,20.75
2022-08-25T03:55:11.670Z,20.74
2022-08-25T03:57:39.588Z,20.74
2022-08-25T04:00:09.021Z,20.72
2022-08-25T04:02:36.741Z,20.72
2022-08-25T04:05:04.626Z,20.73
2022-08-25T04:07:32.693Z,20.72
2022-08-25T04:10:01.830Z,20.72
2022-08-25T04:12:29.642Z,20.73
2022-08-25T04:14:59.278Z,20.74
2022-08-25T04:17:27.039Z,20.74
2022-08-25T04:19:54.704Z,20.74
2022-08-25T04:22:22.533Z,20.71
2022-08-25T04:24:50.885Z,20.69
2022-08-25T04:27:20.107Z,20.66
2022-08-25T04:29:47.841Z,20.64
2022-08-25T04:32:15.586Z,20.62
2022-08-25T04:34:43.461Z,20.62
2022-08-25T04:37:11.537Z,20.62
2022-08-25T04:39:39.214Z,20.59
2022-08-25T04:42:07.164Z,20.61
2022-08-25T04:44:36.233Z,20.61
2022-08-25T04:47:04.036Z,20.61
2022-08-25T04:49:31.956Z,20.59
2022-08-25T04:51:59.648Z,20.57
2022-08-25T04:54:28.160Z,20.54
2022-08-25T04:56:58.732Z,20.51
2022-08-25T04:59:29.995Z,20.50
2022-08-25T05:02:02.137Z,20.49
2022-08-25T05:04:30.032Z,20.49
2022-08-25T05:06:57.909Z,20.49
2022-08-25T05:09:25.593Z,20.49
2022-08-25T05:11:53.506Z,20.47
2022-08-25T05:14:25.749Z,20.45
2022-08-25T05:16:54.273Z,20.41
2022-08-25T05:19:23.884Z,20.37
2022-08-25T05:21:51.654Z,20.35
2022-08-25T05:24:19.456Z,20.34
2022-08-25T05:26:47.169Z,20.34
2022-08-25T05:29:15.610Z,20.33
2022-08-25T05:31:50.128Z,20.32
2022-08-25T05:34:18.762Z,20.31
2022-08-25T05:36:48.252Z,20.30
2022-08-25T05:39:16.050Z,20.30
2022-08-25T05:41:43.769Z,20.31
2022-08-25T05:44:12.665Z,20.30
2022-08-25T05:46:40.489Z,20.32
2022-08-25T05:49:08.162Z,20.30
2022-08-25T05:51:35.853Z,20.28
2022-08-25T05:54:05.364Z,20.27
2022-08-25T05:56:33.061Z,20.28
2022-08-25T05:59:00.770Z,20.29
2022-08-25T06:01:46.870Z,20.29
2022-08-25T06:04:14.864Z,20.31
2022-08-25T06:06:42.557Z,20.30
2022-08-25T06:09:11.652Z,20.31
2022-08-25T06:11:39.960Z,20.32
2022-08-25T06:14:08.249Z,20.32
2022-08-25T06:16:36.189Z,20.33
2022-08-25T06:19:04.067Z,20.32
2022-08-25T06:21:31.866Z,20.32
2022-08-25T06:23:59.653Z,20.32
2022-08-25T06:26:28.781Z,20.35
2022-08-25T06:28:56.462Z,20.36
2022-08-25T06:31:24.567Z,20.35
2022-08-25T06:33:52.873Z,20.35
2022-08-25T06:36:20.602Z,20.35
2022-08-25T06:38:48.676Z,20.38
2022-08-25T06:41:16.596Z,20.38
2022-08-25T06:43:49.792Z,20.39
2022-08-25T06:46:18.855Z,20.38
2022-08-25T06:48:46.608Z,20.40
2022-08-25T06:51:15.865Z,20.41
2022-08-25T06:53:43.832Z,20.42
2022-08-25T06:56:11.754Z,20.44
2022-08-25T06:58:39.676Z,20.46
2022-08-25T07:01:14.886Z,20.47
2022-08-25T07:03:43.855Z,20.47
2022-08-25T07:06:11.536Z,20.48
2022-08-25T07:08:39.524Z,20.50
2022-08-25T07:11:07.450Z,20.51
2022-08-25T07:13:43.985Z,20.53
2022-08-25T07:16:15.283Z,20.52
2022-08-25T07:18:43.070Z,20.52
2022-08-25T07:21:12.173Z,20.53
2022-08-25T07:23:39.895Z,20.55
2022-08-25T07:26:27.133Z,20.55
2022-08-25T07:28:59.729Z,20.54
2022-08-25T07:31:29.850Z,20.54
2022-08-25T07:34:15.394Z,20.55
2022-08-25T07:36:44.410Z,20.56
2022-08-25T07:39:12.125Z,20.57
2022-08-25T07:41:40.610Z,20.57
2022-08-25T07:44:08.564Z,20.57
2022-08-25T07:46:37.681Z,20.58
2022-08-25T07:49:09.204Z,20.59
2022-08-25T07:52:05.743Z,20.58
2022-08-25T07:54:35.144Z,20.59
2022-08-25T07:57:03.362Z,20.61
2022-08-25T07:59:31.162Z,20.62
2022-08-25T08:02:18.416Z,20.61
2022-08-25T08:04:48.502Z,20.63
2022-08-25T08:07:17.445Z,20.63
2022-08-25T08:09:45.143Z,20.64
2022-08-25T08:12:13.535Z,20.64
2022-08-25T08:14:44.978Z,20.65
2022-08-25T08:17:15.280Z,20.66
2022-08-25T08:19:45.278Z,20.64
2022-08-25T08:22:15.434Z,20.65
2022-08-25T08:24:54.415Z,20.64
2022-08-25T08:27:23.696Z,20.65
2022-08-25T08:29:52.236Z,20.66
2022-08-25T08:32:21.386Z,20.66
2022-08-25T08:34:53.179Z,20.66
2022-08-25T08:37:22.957Z,20.67
2022-08-25T08:39:52.755Z,20.67
2022-08-25T08:42:32.726Z,20.67
2022-08-25T08:45:06.416Z,20.67
2022-08-25T08:47:44.931Z,20.68
2022-08-25T08:50:23.949Z,20.68
2022-08-25T08:52:57.523Z,20.69
2022-08-25T08:55:27.928Z,20.69
2022-08-25T08:57:59.315Z,20.70
2022-08-25T09:00:27.412Z,20.70
2022-08-25T09:02:58.753Z,20.71
2022-08-25T09:05:28.683Z,20.71
2022-08-25T09:07:58.194Z,20.72
2022-08-25T09:10:27.101Z,20.72
2022-08-25T09:12:58.852Z,20.72
2022-08-25T09:15:51.072Z,20.72
2022-08-25T09:18:26.798Z,20.73
2022-08-25T09:21:03.708Z,20.73
2022-08-25T09:23:40.365Z,20.73
2022-08-25T09:26:27.272Z,20.74
2022-08-25T09:28:59.515Z,20.75
2022-08-25T09:31:29.839Z,20.75
2022-08-25T09:34:01.114Z,20.75
2022-08-25T09:36:33.130Z,20.76
2022-08-25T09:39:03.273Z,20.77
2022-08-25T09:41:43.099Z,20.77
2022-08-25T09:44:18.196Z,20.77
2022-08-25T09:46:57.120Z,20.77
2022-08-25T09:49:37.555Z,20.77
2022-08-25T09:52:20.065Z,20.78
2022-08-25T09:54:50.123Z,20.78
2022-08-25T09:57:33.813Z,20.79
2022-08-25T10:00:16.318Z,20.80
2022-08-25T10:02:44.854Z,20.82
2022-08-25T10:05:23.446Z,20.85
2022-08-25T10:07:53.449Z,20.87
2022-08-25T10:10:25.797Z,20.90
2022-08-25T10:12:53.485Z,20.90
2022-08-25T10:15:29.956Z,20.92
2022-08-25T10:17:59.921Z,20.93
2022-08-25T10:20:35.066Z,20.96
2022-08-25T10:23:10.842Z,20.97
2022-08-25T10:25:38.486Z,20.97
2022-08-25T10:28:15.420Z,20.97
2022-08-25T10:30:50.434Z,20.98
2022-08-25T10:33:21.129Z,20.97
2022-08-25T10:35:55.895Z,20.97
2022-08-25T10:38:36.142Z,20.98
2022-08-25T10:41:10.768Z,20.98
2022-08-25T10:43:44.707Z,20.99
2022-08-25T10:46:16.140Z,20.99
2022-08-25T10:48:55.381Z,21.00
2022-08-25T10:51:41.852Z,20.99
2022-08-25T10:54:18.705Z,21.00
2022-08-25T10:56:53.128Z,21.00
2022-08-25T10:59:30.281Z,21.00
2022-08-25T11:02:12.333Z,21.00
2022-08-25T11:04:41.015Z,21.00
2022-08-25T11:07:13.350Z,21.00
2022-08-25T11:09:42.220Z,20.99
2022-08-25T11:12:11.450Z,20.99
2022-08-25T11:14:41.351Z,20.99
2022-08-25T11:17:11.866Z,20.99
2022-08-25T11:19:40.747Z,20.99
2022-08-25T11:22:12.734Z,20.99
2022-08-25T11:24:48.640Z,21.00
2022-08-25T11:27:19.636Z,21.00
2022-08-25T11:29:54.308Z,21.00
2022-08-25T11:32:24.746Z,21.01
2022-08-25T11:34:52.564Z,21.02
2022-08-25T11:37:25.396Z,21.01
2022-08-25T11:40:17.651Z,21.02
2022-08-25T11:43:00.099Z,21.05
2022-08-25T11:45:54.125Z,21.06
2022-08-25T11:48:29.408Z,21.07
2022-08-25T11:50:59.935Z,21.08
2022-08-25T11:53:30.437Z,21.09
2022-08-25T11:56:02.351Z,21.09
2022-08-25T11:58:38.675Z,21.10
2022-08-25T12:01:10.804Z,21.10
2022-08-25T12:03:52.252Z,21.10
2022-08-25T12:06:29.082Z,21.10
2022-08-25T12:09:22.895Z,21.10
2022-08-25T12:11:54.559Z,21.11
2022-08-25T12:14:42.426Z,21.12
2022-08-25T12:17:23.070Z,21.13
2022-08-25T12:19:59.018Z,21.14
2022-08-25T12:22:55.108Z,21.14
2022-08-25T12:25:45.429Z,21.13
2022-08-25T12:28:35.218Z,21.14
2022-08-25T12:31:06.533Z,21.14
2022-08-25T12:33:40.185Z,21.14
2022-08-25T12:36:08.466Z,21.14
2022-08-25T12:38:44.136Z,21.15
2022-08-25T12:41:15.320Z,21.15
2022-08-25T12:43:43.706Z,21.15
2022-08-25T12:46:34.111Z,21.15
2022-08-25T12:49:02.141Z,21.14
2022-08-25T12:51:48.665Z,21.14
2022-08-25T12:54:18.924Z,21.15
2022-08-25T12:56:49.145Z,21.15
2022-08-25T12:59:18.241Z,21.14
2022-08-25T13:02:03.197Z,21.14
2022-08-25T13:04:43.761Z,21.15
2022-08-25T13:07:18.387Z,21.15
2022-08-25T13:09:59.606Z,21.15
2022-08-25T13:12:32.303Z,21.14
2022-08-25T13:15:00.153Z,21.14
2022-08-25T13:17:28.218Z,21.14
2022-08-25T13:20:12.317Z,21.15
2022-08-25T13:22:39.986Z,21.15
2022-08-25T13:25:08.105Z,21.14
2022-08-25T13:27:37.517Z,21.15
2022-08-25T13:30:05.903Z,21.14
2022-08-25T13:32:38.841Z,21.15
2022-08-25T13:35:14.195Z,21.14
2022-08-25T13:37:40.955Z,21.12
2022-08-25T13:40:10.928Z,21.14
2022-08-25T13:42:42.515Z,21.14
2022-08-25T13:45:14.917Z,21.15
2022-08-25T13:47:43.804Z,21.15
2022-08-25T13:50:18.413Z,21.15
2022-08-25T13:52:48.970Z,21.14
2022-08-25T13:55:21.850Z,21.14
2022-08-25T13:57:57.647Z,21.13
2022-08-25T14:00:33.297Z,21.14
2022-08-25T14:03:02.357Z,21.15
2022-08-25T14:05:39.077Z,21.18
2022-08-25T14:08:23.511Z,21.21
2022-08-25T14:11:02.873Z,21.27
2022-08-25T14:13:33.129Z,21.36
2022-08-25T14:16:08.631Z,21.42
2022-08-25T14:18:36.362Z,21.50
2022-08-25T14:21:10.638Z,21.55
2022-08-25T14:23:40.019Z,21.57
2022-08-25T14:26:11.359Z,21.59
2022-08-25T14:28:40.568Z,21.57
2022-08-25T14:31:10.155Z,21.58
2022-08-25T14:33:39.397Z,21.57
2022-08-25T14:36:08.252Z,21.56
2022-08-25T14:38:38.642Z,21.57
2022-08-25T14:43:41.145Z,21.51
2022-08-25T14:46:22.409Z,21.50
2022-08-25T14:48:54.500Z,21.50
2022-08-25T14:51:23.162Z,21.48
2022-08-25T14:53:53.088Z,21.47
2022-08-25T14:56:20.986Z,21.45
2022-08-25T14:58:52.960Z,21.44
2022-08-25T15:01:29.491Z,21.43
2022-08-25T15:03:59.658Z,21.43
2022-08-25T15:06:27.741Z,21.42
2022-08-25T15:09:11.378Z,21.41
2022-08-25T15:11:41.472Z,21.39
2022-08-25T15:14:12.110Z,21.39
2022-08-25T15:16:43.307Z,21.38
2022-08-25T15:19:14.477Z,21.36
2022-08-25T15:21:43.753Z,21.36
2022-08-25T15:24:11.868Z,21.37
2022-08-25T15:26:41.185Z,21.36
2022-08-25T15:29:09.003Z,21.35
2022-08-25T15:31:39.786Z,21.34
2022-08-25T15:34:11.856Z,21.35
2022-08-25T15:36:39.761Z,21.33
2022-08-25T15:39:09.431Z,21.32
2022-08-25T15:41:37.897Z,21.33
2022-08-25T15:44:06.469Z,21.31
2022-08-25T15:46:35.942Z,21.31
2022-08-25T15:49:05.166Z,21.32
2022-08-25T15:51:35.691Z,21.31
2022-08-25T15:54:03.711Z,21.31
2022-08-25T15:56:31.548Z,21.31
2022-08-25T15:58:59.266Z,21.30
2022-08-25T16:01:27.883Z,21.29
2022-08-25T16:03:59.146Z,21.29
2022-08-25T16:06:28.531Z,21.31
2022-08-25T16:08:56.777Z,21.35
2022-08-25T16:11:25.577Z,21.41
2022-08-25T16:13:53.694Z,21.50
2022-08-25T16:16:21.808Z,21.57
2022-08-25T16:18:52.566Z,21.65
2022-08-25T16:21:24.047Z,21.75
2022-08-25T16:23:56.536Z,21.83
2022-08-25T16:26:27.014Z,21.89
2022-08-25T16:28:55.130Z,21.96
2022-08-25T16:31:23.051Z,22.03
2022-08-25T16:33:53.555Z,22.09
2022-08-25T16:36:27.171Z,22.12
2022-08-25T16:38:57.642Z,22.17
2022-08-25T16:41:27.182Z,22.22
2022-08-25T16:43:55.245Z,22.26
2022-08-25T16:46:24.194Z,22.29
2022-08-25T16:48:51.941Z,22.33
2022-08-25T16:51:22.646Z,22.37
2022-08-25T16:54:22.285Z,22.40
2022-08-25T16:56:55.120Z,22.44
2022-08-25T16:59:23.733Z,22.46
2022-08-25T17:01:52.243Z,22.49
2022-08-25T17:04:20.281Z,22.52
2022-08-25T17:06:51.607Z,22.54
2022-08-25T17:09:23.755Z,22.57
2022-08-25T17:11:56.592Z,22.59
2022-08-25T17:14:24.416Z,22.61
2022-08-25T17:16:54.651Z,22.62
2022-08-25T17:19:23.597Z,22.64
2022-08-25T17:21:52.313Z,22.65
2022-08-25T17:24:22.297Z,22.67
2022-08-25T17:26:57.612Z,22.71
2022-08-25T17:29:25.364Z,22.72
2022-08-25T17:31:54.374Z,22.74
2022-08-25T17:34:23.253Z,22.76
2022-08-25T17:36:51.256Z,22.77
2022-08-25T17:39:22.400Z,22.77
2022-08-25T17:41:52.166Z,22.79
2022-08-25T17:44:20.759Z,22.79
2022-08-25T17:46:49.465Z,22.77
2022-08-25T17:49:17.309Z,22.77
2022-08-25T17:51:45.717Z,22.80
2022-08-25T17:54:13.554Z,22.83
2022-08-25T17:56:41.443Z,22.86
2022-08-25T17:59:11.922Z,22.87
2022-08-25T18:01:40.670Z,22.89
2022-08-25T18:04:17.475Z,22.89
2022-08-25T18:06:45.972Z,22.90
2022-08-25T18:09:14.201Z,22.91
2022-08-25T18:11:42.363Z,22.93
2022-08-25T18:14:12.149Z,22.93
2022-08-25T18:16:40.336Z,22.93
2022-08-25T18:19:09.801Z,22.94
2022-08-25T18:21:38.194Z,22.93
2022-08-25T18:24:06.395Z,22.94
2022-08-25T18:26:34.322Z,22.95
2022-08-25T18:29:01.996Z,22.91
2022-08-25T18:31:31.104Z,22.87
2022-08-25T18:33:59.990Z,22.85
2022-08-25T18:36:28.271Z,22.80
2022-08-25T18:39:13.764Z,22.75
2022-08-25T18:41:42.406Z,22.71
2022-08-25T18:44:10.913Z,22.66
2022-08-25T18:46:42.137Z,22.60
2022-08-25T18:49:09.906Z,22.56
2022-08-25T18:51:37.990Z,22.51
2022-08-25T18:54:06.853Z,22.49
2022-08-25T18:56:50.108Z,22.45
2022-08-25T18:59:18.175Z,22.42
2022-08-25T19:01:48.548Z,22.39
2022-08-25T19:04:18.043Z,22.35
2022-08-25T19:06:47.719Z,22.31
2022-08-25T19:09:20.046Z,22.27
2022-08-25T19:11:48.640Z,22.24
2022-08-25T19:14:16.353Z,22.22
2022-08-25T19:16:47.223Z,22.20
2022-08-25T19:19:14.990Z,22.16
2022-08-25T19:21:42.838Z,22.13
2022-08-25T19:24:12.141Z,22.12
2022-08-25T19:26:39.948Z,22.10
2022-08-25T19:29:10.157Z,22.08
2022-08-25T19:31:38.085Z,22.07
2022-08-25T19:34:08.702Z,22.05
2022-08-25T19:36:36.681Z,22.02
2022-08-25T19:39:05.578Z,22.00
2022-08-25T19:41:34.246Z,21.98
2022-08-25T19:44:02.772Z,21.97
2022-08-25T19:46:33.320Z,21.96
2022-08-25T19:49:07.107Z,21.94
2022-08-25T19:51:38.240Z,21.93
2022-08-25T19:54:06.201Z,21.91
2022-08-25T19:56:36.827Z,21.89
2022-08-25T19:59:04.748Z,21.87
2022-08-25T20:01:33.020Z,21.87
2022-08-25T20:04:03.494Z,21.86
2022-08-25T20:06:32.161Z,21.85
2022-08-25T20:09:01.324Z,21.83
2022-08-25T20:11:29.060Z,21.84
2022-08-25T20:14:03.141Z,21.82
2022-08-25T20:16:32.947Z,21.81
2022-08-25T20:19:05.251Z,21.80
2022-08-25T20:21:39.313Z,21.79
2022-08-25T20:24:31.649Z,21.79
2022-08-25T20:27:00.225Z,21.78
2022-08-25T20:29:28.032Z,21.76
2022-08-25T20:31:55.723Z,21.75
2022-08-25T20:34:24.222Z,21.76
2022-08-25T20:36:52.889Z,21.75
2022-08-25T20:39:22.361Z,21.73
2022-08-25T20:41:50.027Z,21.73
2022-08-25T20:44:17.777Z,21.73
2022-08-25T20:46:45.897Z,21.72
2022-08-25T20:49:13.656Z,21.72
2022-08-25T20:51:41.325Z,21.72
2022-08-25T20:54:09.250Z,21.71
2022-08-25T20:56:38.215Z,21.71
2022-08-25T20:59:10.379Z,21.70
2022-08-25T21:01:40.086Z,21.70
2022-08-25T21:04:08.019Z,21.69
2022-08-25T21:06:36.058Z,21.68
2022-08-25T21:09:03.898Z,21.68
2022-08-25T21:11:31.970Z,21.67
2022-08-25T21:14:02.025Z,21.68
2022-08-25T21:16:33.919Z,21.67
2022-08-25T21:19:01.994Z,21.67
2022-08-25T21:21:30.047Z,21.68
2022-08-25T21:23:57.623Z,21.66
2022-08-25T21:26:26.478Z,21.66
2022-08-25T21:28:54.144Z,21.65
2022-08-25T21:31:23.482Z,21.64
2022-08-25T21:33:53.088Z,21.65
2022-08-25T21:36:21.621Z,21.64
2022-08-25T21:38:49.345Z,21.64
2022-08-25T21:41:18.702Z,21.64
2022-08-25T21:43:46.694Z,21.64
2022-08-25T21:46:16.954Z,21.64
2022-08-25T21:48:47.501Z,21.63
2022-08-25T21:51:17.350Z,21.63
2022-08-25T21:53:46.985Z,21.62
2022-08-25T21:56:18.375Z,21.63
2022-08-25T21:58:49.126Z,21.62
2022-08-25T22:01:19.458Z,21.62
2022-08-25T22:03:48.652Z,21.62
2022-08-25T22:06:16.480Z,21.61
2022-08-25T22:08:44.191Z,21.61
2022-08-25T22:11:11.924Z,21.60
2022-08-25T22:13:41.179Z,21.61
2022-08-25T22:16:11.447Z,21.60
2022-08-25T22:18:40.801Z,21.60
2022-08-25T22:21:11.726Z,21.58
2022-08-25T22:23:40.017Z,21.59
2022-08-25T22:26:13.897Z,21.59
2022-08-25T22:28:42.708Z,21.59
2022-08-25T22:31:13.796Z,21.58
2022-08-25T22:33:48.536Z,21.57
2022-08-25T22:36:19.362Z,21.57
2022-08-25T22:38:48.023Z,21.57
2022-08-25T22:41:21.293Z,21.57
2022-08-25T22:43:49.521Z,21.56
2022-08-25T22:46:19.196Z,21.57
2022-08-25T22:48:47.355Z,21.57
2022-08-25T22:51:21.024Z,21.57
2022-08-25T22:53:49.492Z,21.57
2022-08-25T22:56:18.414Z,21.55
2022-08-25T22:58:51.721Z,21.56
2022-08-25T23:01:20.896Z,21.55
2022-08-25T23:03:48.758Z,21.54
2022-08-25T23:06:20.784Z,21.54
2022-08-25T23:08:54.010Z,21.54
2022-08-25T23:11:22.053Z,21.55
2022-08-25T23:13:49.850Z,21.52
2022-08-25T23:16:17.855Z,21.52
2022-08-25T23:18:46.871Z,21.53
2022-08-25T23:21:44.157Z,21.52
2022-08-25T23:24:13.882Z,21.52
2022-08-25T23:26:55.125Z,21.52
2022-08-25T23:29:22.810Z,21.52
2022-08-25T23:31:53.666Z,21.51
2022-08-25T23:34:23.556Z,21.50
2022-08-25T23:36:51.366Z,21.51
2022-08-25T23:39:21.903Z,21.51
2022-08-25T23:41:50.059Z,21.50
2022-08-25T23:44:18.759Z,21.50
2022-08-25T23:46:47.322Z,21.51
2022-08-25T23:49:18.204Z,21.49
2022-08-25T23:51:46.830Z,21.49
2022-08-25T23:54:14.609Z,21.48
2022-08-25T23:56:51.854Z,21.48
2022-08-25T23:59:20.553Z,21.48
